createdAt,value
2022-10-13T00:00:04.166Z,0.00
2022-10-13T00:01:04.186Z,0.00
2022-10-13T00:02:04.145Z,0.00
2022-10-13T00:03:04.130Z,0.00
2022-10-13T00:04:04.129Z,0.00
2022-10-13T00:05:04.119Z,0.00
2022-10-13T00:06:04.099Z,0.00
2022-10-13T00:07:04.087Z,0.00
2022-10-13T00:08:04.081Z,0.00
2022-10-13T00:09:04.073Z,0.00
2022-10-13T00:10:04.056Z,0.00
2022-10-13T00:11:04.046Z,0.00
2022-10-13T00:12:04.036Z,0.00
2022-10-13T00:13:04.024Z,0.00
2022-10-13T00:14:04.019Z,0.00
2022-10-13T00:15:03.998Z,0.00
2022-10-13T00:16:03.992Z,0.00
2022-10-13T00:17:03.995Z,0.00
2022-10-13T00:18:03.978Z,0.00
2022-10-13T00:19:03.952Z,0.00
2022-10-13T00:20:03.947Z,0.00
2022-10-13T00:21:03.931Z,0.00
2022-10-13T00:22:03.970Z,0.00
2022-10-13T00:23:03.922Z,0.00
2022-10-13T00:24:03.901Z,0.00
2022-10-13T00:25:03.888Z,0.00
2022-10-13T00:26:03.880Z,0.00
2022-10-13T00:27:03.871Z,0.00
2022-10-13T00:28:03.867Z,0.00
2022-10-13T00:29:03.881Z,0.00
2022-10-13T00:30:03.836Z,0.00
2022-10-13T00:31:03.824Z,0.00
2022-10-13T00:32:03.814Z,0.00
2022-10-13T00:33:03.829Z,0.00
2022-10-13T00:34:03.792Z,0.00
2022-10-13T00:35:03.782Z,0.00
2022-10-13T00:36:03.770Z,0.00
2022-10-13T00:37:03.768Z,0.00
2022-10-13T00:38:03.764Z,0.00
2022-10-13T00:39:03.734Z,0.00
2022-10-13T00:40:03.741Z,0.00
2022-10-13T00:41:03.719Z,0.00
2022-10-13T00:42:03.706Z,0.00
2022-10-13T00:43:03.702Z,0.00
2022-10-13T00:44:03.687Z,0.00
2022-10-13T00:45:03.673Z,0.00
2022-10-13T00:46:03.661Z,0.00
2022-10-13T00:47:03.649Z,0.00
2022-10-13T00:48:03.649Z,0.00
2022-10-13T00:49:03.707Z,0.00
2022-10-13T00:50:03.615Z,0.00
2022-10-13T00:51:03.604Z,0.00
2022-10-13T00:52:03.594Z,0.00
2022-10-13T00:53:03.592Z,0.00
2022-10-13T00:54:03.578Z,0.00
2022-10-13T00:55:03.560Z,0.00
2022-10-13T00:56:03.550Z,0.00
2022-10-13T00:57:03.551Z,0.00
2022-10-13T00:58:05.370Z,0.00
2022-10-13T00:59:03.518Z,0.00
2022-10-13T01:00:03.505Z,0.00
2022-10-13T01:01:03.538Z,0.00
2022-10-13T01:02:03.483Z,0.00
2022-10-13T01:03:03.482Z,0.00
2022-10-13T01:04:03.468Z,0.00
2022-10-13T01:05:03.466Z,0.00
2022-10-13T01:06:03.441Z,0.00
2022-10-13T01:07:03.429Z,0.00
2022-10-13T01:08:03.430Z,0.00
2022-10-13T01:09:03.406Z,0.00
2022-10-13T01:10:03.397Z,0.00
2022-10-13T01:11:03.386Z,0.00
2022-10-13T01:12:03.374Z,0.00
2022-10-13T01:13:03.372Z,0.00
2022-10-13T01:14:03.359Z,0.00
2022-10-13T01:15:03.339Z,0.00
2022-10-13T01:16:03.332Z,0.00
2022-10-13T01:17:03.318Z,0.00
2022-10-13T01:18:03.322Z,0.00
2022-10-13T01:19:03.296Z,0.00
2022-10-13T01:20:03.289Z,0.00
2022-10-13T01:21:03.288Z,0.00
2022-10-13T01:22:03.264Z,0.00
2022-10-13T01:23:03.276Z,0.00
2022-10-13T01:24:03.243Z,0.00
2022-10-13T01:25:03.278Z,0.00
2022-10-13T01:26:03.220Z,0.00
2022-10-13T01:27:03.208Z,0.00
2022-10-13T01:28:03.211Z,0.00
2022-10-13T01:29:03.187Z,0.00
2022-10-13T01:30:03.175Z,0.00
2022-10-13T01:31:03.165Z,0.00
2022-10-13T01:32:03.156Z,0.00
2022-10-13T01:33:03.156Z,0.00
2022-10-13T01:34:03.140Z,0.00
2022-10-13T01:35:03.123Z,0.00
2022-10-13T01:36:03.110Z,0.00
2022-10-13T01:37:03.113Z,0.00
2022-10-13T01:38:03.100Z,0.00
2022-10-13T01:39:03.114Z,0.00
2022-10-13T01:40:03.066Z,0.00
2022-10-13T01:41:03.054Z,0.00
2022-10-13T01:42:03.043Z,0.00
2022-10-13T01:43:03.044Z,0.00
2022-10-13T01:44:03.024Z,0.00
2022-10-13T01:45:03.020Z,0.00
2022-10-13T01:46:02.999Z,0.00
2022-10-13T01:47:02.989Z,0.00
2022-10-13T01:48:02.988Z,0.00
2022-10-13T01:49:02.981Z,0.00
2022-10-13T01:50:02.957Z,0.00
2022-10-13T01:51:02.947Z,0.00
2022-10-13T01:52:02.934Z,0.00
2022-10-13T01:53:02.952Z,0.00
2022-10-13T01:54:02.910Z,0.00
2022-10-13T01:55:02.908Z,0.00
2022-10-13T01:56:02.889Z,0.00
2022-10-13T01:57:02.889Z,0.00
2022-10-13T01:58:02.877Z,0.00
2022-10-13T01:59:02.858Z,0.00
2022-10-13T02:00:02.845Z,0.00
2022-10-13T02:01:02.925Z,0.00
2022-10-13T02:02:02.825Z,0.00
2022-10-13T02:03:02.826Z,0.00
2022-10-13T02:04:02.802Z,0.00
2022-10-13T02:05:10.384Z,0.00
2022-10-13T02:06:02.780Z,0.00
2022-10-13T02:07:02.771Z,0.00
2022-10-13T02:08:02.772Z,0.00
2022-10-13T02:09:02.766Z,0.00
2022-10-13T02:10:02.737Z,0.00
2022-10-13T02:11:02.727Z,0.00
2022-10-13T02:12:02.719Z,0.00
2022-10-13T02:13:02.719Z,0.00
2022-10-13T02:14:02.691Z,0.00
2022-10-13T02:15:02.685Z,0.00
2022-10-13T02:16:02.673Z,0.00
2022-10-13T02:17:02.659Z,0.00
2022-10-13T02:18:02.657Z,0.00
2022-10-13T02:19:02.662Z,0.00
2022-10-13T02:20:02.626Z,0.00
2022-10-13T02:21:02.628Z,0.00
2022-10-13T02:22:02.604Z,0.00
2022-10-13T02:23:02.606Z,0.00
2022-10-13T02:24:02.582Z,0.00
2022-10-13T02:25:02.690Z,0.00
2022-10-13T02:26:02.562Z,0.00
2022-10-13T02:27:02.552Z,0.00
2022-10-13T02:28:02.549Z,0.00
2022-10-13T02:29:02.529Z,0.00
2022-10-13T02:30:02.522Z,0.00
2022-10-13T02:31:02.509Z,0.00
2022-10-13T02:32:02.496Z,0.00
2022-10-13T02:33:02.502Z,0.00
2022-10-13T02:34:02.475Z,0.00
2022-10-13T02:35:02.467Z,0.00
2022-10-13T02:36:02.451Z,0.00
2022-10-13T02:37:02.441Z,0.00
2022-10-13T02:38:02.440Z,0.00
2022-10-13T02:39:02.422Z,0.00
2022-10-13T02:40:02.417Z,0.00
2022-10-13T02:41:02.421Z,0.00
2022-10-13T02:42:02.386Z,0.00
2022-10-13T02:43:02.389Z,0.00
2022-10-13T02:44:02.364Z,0.00
2022-10-13T02:45:02.357Z,0.00
2022-10-13T02:46:02.340Z,0.00
2022-10-13T02:47:02.331Z,0.00
2022-10-13T02:48:02.333Z,0.00
2022-10-13T02:49:02.318Z,0.00
2022-10-13T02:50:02.298Z,0.00
2022-10-13T02:51:02.289Z,0.00
2022-10-13T02:52:02.277Z,0.00
2022-10-13T02:53:02.280Z,0.00
2022-10-13T02:54:02.254Z,0.00
2022-10-13T02:55:02.248Z,0.00
2022-10-13T02:56:02.243Z,0.00
2022-10-13T02:57:02.240Z,0.00
2022-10-13T02:58:02.227Z,0.00
2022-10-13T02:59:02.205Z,0.00
2022-10-13T03:00:02.194Z,0.00
2022-10-13T03:01:02.240Z,0.00
2022-10-13T03:02:02.169Z,0.00
2022-10-13T03:03:02.173Z,0.00
2022-10-13T03:04:02.159Z,0.00
2022-10-13T03:05:02.138Z,0.00
2022-10-13T03:06:02.125Z,0.00
2022-10-13T03:07:02.114Z,0.00
2022-10-13T03:08:02.115Z,0.00
2022-10-13T03:09:02.095Z,0.00
2022-10-13T03:10:02.082Z,0.00
2022-10-13T03:11:02.071Z,0.00
2022-10-13T03:12:02.059Z,0.00
2022-10-13T03:13:02.083Z,0.00
2022-10-13T03:14:02.037Z,0.00
2022-10-13T03:15:02.061Z,0.00
2022-10-13T03:16:02.017Z,0.00
2022-10-13T03:17:02.006Z,0.00
2022-10-13T03:18:02.007Z,0.00
2022-10-13T03:19:01.991Z,0.00
2022-10-13T03:20:01.976Z,0.00
2022-10-13T03:21:01.969Z,0.00
2022-10-13T03:22:01.954Z,0.00
2022-10-13T03:23:01.953Z,0.00
2022-10-13T03:24:01.991Z,0.00
2022-10-13T03:25:01.920Z,0.00
2022-10-13T03:26:01.912Z,0.00
2022-10-13T03:27:01.900Z,0.00
2022-10-13T03:28:01.898Z,0.00
2022-10-13T03:29:01.897Z,0.00
2022-10-13T03:30:01.865Z,0.00
2022-10-13T03:31:01.864Z,0.00
2022-10-13T03:32:01.846Z,0.00
2022-10-13T03:33:01.845Z,0.00
2022-10-13T03:34:01.827Z,0.00
2022-10-13T03:35:01.815Z,0.00
2022-10-13T03:36:01.808Z,0.00
2022-10-13T03:37:01.789Z,0.00
2022-10-13T03:38:01.790Z,0.00
2022-10-13T03:39:01.770Z,0.00
2022-10-13T03:40:01.756Z,0.00
2022-10-13T03:41:01.753Z,0.00
2022-10-13T03:42:01.735Z,0.00
2022-10-13T03:43:01.735Z,0.00
2022-10-13T03:44:01.748Z,0.00
2022-10-13T03:45:01.721Z,0.00
2022-10-13T03:46:01.693Z,0.00
2022-10-13T03:47:01.702Z,0.00
2022-10-13T03:48:01.677Z,0.00
2022-10-13T03:49:01.662Z,0.00
2022-10-13T03:50:01.651Z,0.00
2022-10-13T03:51:01.640Z,0.00
2022-10-13T03:52:01.628Z,0.00
2022-10-13T03:53:01.628Z,0.00
2022-10-13T03:54:01.606Z,0.00
2022-10-13T03:55:01.595Z,0.00
2022-10-13T03:56:01.585Z,0.00
2022-10-13T03:57:01.577Z,0.00
2022-10-13T03:58:01.576Z,0.00
2022-10-13T03:59:01.561Z,0.00
2022-10-13T04:00:01.556Z,0.00
2022-10-13T04:01:01.667Z,0.00
2022-10-13T04:02:01.583Z,0.00
2022-10-13T04:03:01.520Z,0.00
2022-10-13T04:04:01.500Z,0.00
2022-10-13T04:05:01.493Z,0.00
2022-10-13T04:06:01.477Z,0.00
2022-10-13T04:07:01.477Z,0.00
2022-10-13T04:08:01.454Z,0.00
2022-10-13T04:09:01.445Z,0.00
2022-10-13T04:10:01.434Z,0.00
2022-10-13T04:11:01.431Z,0.00
2022-10-13T04:12:01.424Z,0.00
2022-10-13T04:13:01.434Z,0.00
2022-10-13T04:14:01.390Z,0.00
2022-10-13T04:15:01.380Z,0.00
2022-10-13T04:16:01.370Z,0.00
2022-10-13T04:17:01.386Z,0.00
2022-10-13T04:18:01.350Z,0.00
2022-10-13T04:19:01.336Z,0.00
2022-10-13T04:20:01.333Z,0.00
2022-10-13T04:21:01.315Z,0.00
2022-10-13T04:22:01.315Z,0.00
2022-10-13T04:23:01.294Z,0.00
2022-10-13T04:24:01.286Z,0.00
2022-10-13T04:25:01.312Z,0.00
2022-10-13T04:26:01.264Z,0.00
2022-10-13T04:27:01.267Z,0.00
2022-10-13T04:28:01.239Z,0.00
2022-10-13T04:29:01.230Z,0.00
2022-10-13T04:30:01.216Z,0.00
2022-10-13T04:31:01.209Z,0.00
2022-10-13T04:32:01.201Z,0.00
2022-10-13T04:33:01.213Z,0.00
2022-10-13T04:34:01.173Z,0.00
2022-10-13T04:35:01.166Z,0.00
2022-10-13T04:36:01.155Z,0.00
2022-10-13T04:37:01.143Z,0.00
2022-10-13T04:38:01.143Z,0.00
2022-10-13T04:39:01.122Z,0.00
2022-10-13T04:40:01.108Z,0.00
2022-10-13T04:41:01.106Z,0.00
2022-10-13T04:42:01.088Z,0.00
2022-10-13T04:43:01.092Z,0.00
2022-10-13T04:44:01.066Z,0.00
2022-10-13T04:45:01.061Z,0.00
2022-10-13T04:46:01.044Z,0.00
2022-10-13T04:47:01.036Z,0.00
2022-10-13T04:48:01.098Z,0.00
2022-10-13T04:49:01.031Z,0.00
2022-10-13T04:50:01.001Z,0.00
2022-10-13T04:51:00.991Z,0.00
2022-10-13T04:52:00.984Z,0.00
2022-10-13T04:53:01.019Z,0.00
2022-10-13T04:54:00.957Z,0.00
2022-10-13T04:55:00.949Z,0.00
2022-10-13T04:56:00.938Z,0.00
2022-10-13T04:57:00.926Z,0.00
2022-10-13T04:58:00.924Z,0.00
2022-10-13T04:59:00.907Z,0.00
2022-10-13T05:00:00.893Z,0.00
2022-10-13T05:01:00.931Z,0.00
2022-10-13T05:02:00.874Z,0.00
2022-10-13T05:03:00.870Z,0.00
2022-10-13T05:04:00.865Z,0.00
2022-10-13T05:05:00.857Z,0.00
2022-10-13T05:06:00.827Z,0.00
2022-10-13T05:07:18.316Z,0.00
2022-10-13T05:08:01.816Z,0.00
2022-10-13T05:09:00.797Z,0.00
2022-10-13T05:10:00.787Z,0.00
2022-10-13T05:11:00.773Z,0.00
2022-10-13T05:12:00.761Z,0.00
2022-10-13T05:13:00.767Z,0.00
2022-10-13T05:14:00.738Z,0.00
2022-10-13T05:15:00.735Z,0.00
2022-10-13T05:16:00.719Z,0.00
2022-10-13T05:17:00.708Z,0.00
2022-10-13T05:18:00.708Z,0.00
2022-10-13T05:19:00.687Z,0.00
2022-10-13T05:20:00.676Z,0.00
2022-10-13T05:21:00.680Z,0.00
2022-10-13T05:22:00.652Z,0.00
2022-10-13T05:23:00.656Z,0.00
2022-10-13T05:24:00.628Z,0.00
2022-10-13T05:25:00.625Z,5.62
2022-10-13T05:26:00.610Z,5.62
2022-10-13T05:27:00.602Z,5.62
2022-10-13T05:28:00.604Z,5.62
2022-10-13T05:29:00.588Z,5.62
2022-10-13T05:30:00.592Z,5.62
2022-10-13T05:31:00.556Z,5.62
2022-10-13T05:32:00.543Z,5.62
2022-10-13T05:33:00.548Z,5.62
2022-10-13T05:34:00.524Z,5.62
2022-10-13T05:35:00.511Z,5.62
2022-10-13T05:36:00.499Z,11.25
2022-10-13T05:37:00.638Z,11.25
2022-10-13T05:38:00.505Z,11.25
2022-10-13T05:39:00.478Z,11.25
2022-10-13T05:40:00.467Z,11.25
2022-10-13T05:41:00.468Z,16.88
2022-10-13T05:42:00.434Z,16.88
2022-10-13T05:43:00.478Z,16.88
2022-10-13T05:44:00.416Z,16.88
2022-10-13T05:45:00.404Z,22.50
2022-10-13T05:46:00.393Z,22.50
2022-10-13T05:47:05.025Z,28.12
2022-10-13T05:48:01.366Z,28.12
2022-10-13T05:49:00.360Z,33.75
2022-10-13T05:50:00.344Z,33.75
2022-10-13T05:51:00.337Z,33.75
2022-10-13T05:52:00.354Z,33.75
2022-10-13T05:53:00.331Z,39.38
2022-10-13T05:54:00.302Z,39.38
2022-10-13T05:55:00.298Z,39.38
2022-10-13T05:56:00.281Z,45.00
2022-10-13T05:57:00.283Z,45.00
2022-10-13T05:58:00.257Z,45.00
2022-10-13T05:59:00.251Z,45.00
2022-10-13T06:00:00.240Z,56.25
2022-10-13T06:01:00.225Z,56.25
2022-10-13T06:02:00.274Z,45.00
2022-10-13T06:03:00.204Z,33.75
2022-10-13T06:04:00.194Z,28.12
2022-10-13T06:05:00.183Z,28.12
2022-10-13T06:06:00.174Z,33.75
2022-10-13T06:07:00.173Z,33.75
2022-10-13T06:08:00.150Z,33.75
2022-10-13T06:09:00.164Z,33.75
2022-10-13T06:10:00.138Z,39.38
2022-10-13T06:11:00.114Z,39.38
2022-10-13T06:12:00.119Z,45.00
2022-10-13T06:13:00.094Z,45.00
2022-10-13T06:14:00.089Z,50.62
2022-10-13T06:15:00.085Z,50.62
2022-10-13T06:16:00.066Z,56.25
2022-10-13T06:17:00.086Z,61.88
2022-10-13T06:18:00.041Z,67.50
2022-10-13T06:19:00.027Z,67.50
2022-10-13T06:20:00.022Z,73.12
2022-10-13T06:21:00.007Z,73.12
2022-10-13T06:22:03.460Z,73.12
2022-10-13T06:22:59.987Z,78.75
2022-10-13T06:23:59.975Z,78.75
2022-10-13T06:24:59.977Z,84.38
2022-10-13T06:25:59.954Z,84.38
2022-10-13T06:26:59.955Z,90.00
2022-10-13T06:27:59.932Z,90.00
2022-10-13T06:29:00.148Z,90.00
2022-10-13T06:29:59.913Z,90.00
2022-10-13T06:30:59.901Z,95.62
2022-10-13T06:31:59.889Z,95.62
2022-10-13T06:32:59.885Z,95.62
2022-10-13T06:33:59.866Z,95.62
2022-10-13T06:34:59.859Z,95.62
2022-10-13T06:35:59.844Z,101.25
2022-10-13T06:36:59.836Z,101.25
2022-10-13T06:37:59.854Z,112.50
2022-10-13T06:38:59.817Z,118.12
2022-10-13T06:39:59.804Z,129.38
2022-10-13T06:40:59.869Z,135.00
2022-10-13T06:41:59.778Z,146.25
2022-10-13T06:42:59.778Z,208.12
2022-10-13T06:43:59.758Z,140.62
2022-10-13T06:44:59.746Z,135.00
2022-10-13T06:45:59.736Z,118.12
2022-10-13T06:46:59.723Z,106.88
2022-10-13T06:47:59.737Z,101.25
2022-10-13T06:48:59.700Z,101.25
2022-10-13T06:49:59.697Z,101.25
2022-10-13T06:50:59.681Z,101.25
2022-10-13T06:51:59.670Z,101.25
2022-10-13T06:52:59.701Z,112.50
2022-10-13T06:53:59.651Z,129.38
2022-10-13T06:54:59.637Z,146.25
2022-10-13T06:55:59.627Z,174.38
2022-10-13T06:56:59.635Z,151.88
2022-10-13T06:57:59.614Z,123.75
2022-10-13T06:58:59.599Z,112.50
2022-10-13T06:59:59.586Z,106.88
2022-10-13T07:00:59.646Z,90.00
2022-10-13T07:01:59.567Z,90.00
2022-10-13T07:02:59.572Z,101.25
2022-10-13T07:03:59.542Z,106.88
2022-10-13T07:04:59.530Z,101.25
2022-10-13T07:05:59.521Z,106.88
2022-10-13T07:06:59.517Z,112.50
2022-10-13T07:07:59.521Z,123.75
2022-10-13T07:08:59.486Z,129.38
2022-10-13T07:09:59.488Z,129.38
2022-10-13T07:10:59.462Z,135.00
2022-10-13T07:11:59.480Z,140.62
2022-10-13T07:12:59.459Z,151.88
2022-10-13T07:13:59.433Z,146.25
2022-10-13T07:14:59.422Z,151.88
2022-10-13T07:15:59.427Z,174.38
2022-10-13T07:16:59.415Z,196.88
2022-10-13T07:17:59.391Z,303.75
2022-10-13T07:18:59.376Z,331.88
2022-10-13T07:20:01.298Z,219.38
2022-10-13T07:21:00.354Z,247.50
2022-10-13T07:21:59.345Z,298.12
2022-10-13T07:22:59.353Z,399.38
2022-10-13T07:23:59.343Z,433.12
2022-10-13T07:24:59.358Z,1136.25
2022-10-13T07:25:59.301Z,1125.00
2022-10-13T07:27:02.768Z,888.75
2022-10-13T07:28:00.278Z,770.62
2022-10-13T07:28:59.410Z,1766.25
2022-10-13T07:29:59.267Z,1698.75
2022-10-13T07:30:59.244Z,1805.62
2022-10-13T07:31:59.249Z,753.75
2022-10-13T07:32:59.223Z,770.62
2022-10-13T07:33:59.228Z,978.75
2022-10-13T07:34:59.202Z,489.38
2022-10-13T07:35:59.192Z,376.88
2022-10-13T07:36:59.189Z,309.38
2022-10-13T07:37:59.172Z,309.38
2022-10-13T07:38:59.157Z,236.25
2022-10-13T07:39:59.147Z,315.00
2022-10-13T07:40:59.140Z,213.75
2022-10-13T07:41:59.150Z,213.75
2022-10-13T07:42:59.115Z,247.50
2022-10-13T07:43:59.129Z,309.38
2022-10-13T07:44:59.108Z,720.00
2022-10-13T07:45:59.093Z,1321.88
2022-10-13T07:46:59.068Z,410.62
2022-10-13T07:47:59.071Z,461.25
2022-10-13T07:48:59.071Z,1861.88
2022-10-13T07:49:59.054Z,1575.00
2022-10-13T07:50:59.057Z,1946.25
2022-10-13T07:51:59.016Z,2070.00
2022-10-13T07:52:59.058Z,2098.12
2022-10-13T07:53:58.995Z,2058.75
2022-10-13T07:54:58.994Z,2103.75
2022-10-13T07:55:58.973Z,2171.25
2022-10-13T07:56:58.971Z,2148.75
2022-10-13T07:57:58.951Z,2030.62
2022-10-13T07:58:58.939Z,1974.38
2022-10-13T07:59:58.929Z,1951.88
2022-10-13T08:00:59.565Z,1873.12
2022-10-13T08:01:58.951Z,1856.25
2022-10-13T08:02:59.006Z,2058.75
2022-10-13T08:03:58.887Z,2131.88
2022-10-13T08:04:58.874Z,2075.62
2022-10-13T08:05:58.868Z,1861.88
2022-10-13T08:06:58.890Z,1485.00
2022-10-13T08:07:58.855Z,1648.12
2022-10-13T08:08:58.829Z,1305.00
2022-10-13T08:09:58.842Z,1552.50
2022-10-13T08:10:58.811Z,1333.12
2022-10-13T08:12:00.965Z,1276.88
2022-10-13T08:12:58.799Z,1248.75
2022-10-13T08:13:58.792Z,725.62
2022-10-13T08:15:00.598Z,652.50
2022-10-13T08:16:58.773Z,579.38
2022-10-13T08:17:58.736Z,573.75
2022-10-13T08:18:58.717Z,478.12
2022-10-13T08:19:58.708Z,450.00
2022-10-13T08:21:23.970Z,433.12
2022-10-13T08:22:00.305Z,433.12
2022-10-13T08:22:58.676Z,421.88
2022-10-13T08:23:58.664Z,433.12
2022-10-13T08:24:58.653Z,444.38
2022-10-13T08:25:58.649Z,483.75
2022-10-13T08:26:58.640Z,607.50
2022-10-13T08:28:00.645Z,748.12
2022-10-13T08:29:16.494Z,691.88
2022-10-13T08:29:59.598Z,658.12
2022-10-13T08:30:58.734Z,686.25
2022-10-13T08:31:58.592Z,753.75
2022-10-13T08:32:58.597Z,748.12
2022-10-13T08:33:58.557Z,635.62
2022-10-13T08:34:58.544Z,630.00
2022-10-13T08:35:58.542Z,596.25
2022-10-13T08:36:58.543Z,579.38
2022-10-13T08:37:58.530Z,590.62
2022-10-13T08:38:58.503Z,607.50
2022-10-13T08:39:58.497Z,646.88
2022-10-13T08:40:58.479Z,652.50
2022-10-13T08:41:58.485Z,720.00
2022-10-13T08:43:00.497Z,748.12
2022-10-13T08:44:40.966Z,793.12
2022-10-13T08:45:35.821Z,866.25
2022-10-13T08:45:59.428Z,855.00
2022-10-13T08:46:58.443Z,1282.50
2022-10-13T08:47:58.406Z,877.50
2022-10-13T08:48:58.411Z,950.62
2022-10-13T08:50:00.450Z,1001.25
2022-10-13T08:50:58.403Z,1968.75
2022-10-13T08:51:58.391Z,1923.75
2022-10-13T08:52:58.373Z,1496.25
2022-10-13T08:53:58.389Z,950.62
2022-10-13T08:54:58.337Z,922.50
2022-10-13T08:55:58.327Z,1355.62
2022-10-13T08:56:58.354Z,826.88
2022-10-13T08:57:58.302Z,770.62
2022-10-13T08:58:58.294Z,753.75
2022-10-13T08:59:58.303Z,781.88
2022-10-13T09:00:58.266Z,855.00
2022-10-13T09:01:58.341Z,686.25
2022-10-13T09:02:58.305Z,624.38
2022-10-13T09:03:58.233Z,568.12
2022-10-13T09:04:58.242Z,545.62
2022-10-13T09:05:58.211Z,511.88
2022-10-13T09:06:58.223Z,478.12
2022-10-13T09:07:58.194Z,438.75
2022-10-13T09:08:58.180Z,416.25
2022-10-13T09:09:58.169Z,416.25
2022-10-13T09:10:58.156Z,399.38
2022-10-13T09:11:58.171Z,393.75
2022-10-13T09:12:58.134Z,382.50
2022-10-13T09:13:58.126Z,365.62
2022-10-13T09:14:58.113Z,320.62
2022-10-13T09:15:58.103Z,298.12
2022-10-13T09:16:58.090Z,286.88
2022-10-13T09:17:58.097Z,270.00
2022-10-13T09:18:58.070Z,270.00
2022-10-13T09:19:58.060Z,230.62
2022-10-13T09:20:58.074Z,213.75
2022-10-13T09:21:58.039Z,202.50
2022-10-13T09:22:58.039Z,191.25
2022-10-13T09:23:58.050Z,185.62
2022-10-13T09:24:58.005Z,180.00
2022-10-13T09:25:57.996Z,174.38
2022-10-13T09:26:57.983Z,174.38
2022-10-13T09:27:57.986Z,174.38
2022-10-13T09:28:58.033Z,174.38
2022-10-13T09:29:57.954Z,174.38
2022-10-13T09:30:57.942Z,174.38
2022-10-13T09:31:57.946Z,180.00
2022-10-13T09:32:57.932Z,180.00
2022-10-13T09:33:57.908Z,180.00
2022-10-13T09:34:57.898Z,185.62
2022-10-13T09:35:57.894Z,185.62
2022-10-13T09:36:57.891Z,191.25
2022-10-13T09:37:57.880Z,191.25
2022-10-13T09:38:57.854Z,196.88
2022-10-13T09:39:57.845Z,208.12
2022-10-13T09:40:57.835Z,213.75
2022-10-13T09:41:57.826Z,225.00
2022-10-13T09:42:57.819Z,230.62
2022-10-13T09:43:57.799Z,236.25
2022-10-13T09:44:57.789Z,253.12
2022-10-13T09:45:57.785Z,270.00
2022-10-13T09:46:57.766Z,281.25
2022-10-13T09:47:57.765Z,303.75
2022-10-13T09:48:57.752Z,337.50
2022-10-13T09:49:57.753Z,315.00
2022-10-13T09:50:57.724Z,320.62
2022-10-13T09:51:57.715Z,303.75
2022-10-13T09:52:57.724Z,309.38
2022-10-13T09:53:57.690Z,309.38
2022-10-13T09:54:57.680Z,315.00
2022-10-13T09:55:57.668Z,326.25
2022-10-13T09:56:57.662Z,320.62
2022-10-13T09:57:57.656Z,315.00
2022-10-13T09:58:57.634Z,315.00
2022-10-13T09:59:57.704Z,309.38
2022-10-13T10:00:57.654Z,309.38
2022-10-13T10:01:57.602Z,315.00
2022-10-13T10:02:57.603Z,331.88
2022-10-13T10:03:57.722Z,320.62
2022-10-13T10:04:57.569Z,315.00
2022-10-13T10:05:57.666Z,337.50
2022-10-13T10:06:57.546Z,337.50
2022-10-13T10:07:57.574Z,354.38
2022-10-13T10:09:03.347Z,427.50
2022-10-13T10:09:58.533Z,568.12
2022-10-13T10:10:57.515Z,669.38
2022-10-13T10:11:57.498Z,585.00
2022-10-13T10:12:57.491Z,1198.12
2022-10-13T10:13:57.470Z,956.25
2022-10-13T10:14:57.526Z,928.12
2022-10-13T10:15:57.448Z,1096.88
2022-10-13T10:16:57.444Z,1305.00
2022-10-13T10:17:57.445Z,1125.00
2022-10-13T10:18:58.953Z,1687.50
2022-10-13T10:19:57.410Z,2756.25
2022-10-13T10:20:57.420Z,1805.62
2022-10-13T10:21:57.388Z,950.62
2022-10-13T10:22:57.385Z,556.88
2022-10-13T10:23:57.366Z,466.88
2022-10-13T10:24:57.445Z,450.00
2022-10-13T10:25:57.339Z,444.38
2022-10-13T10:26:57.330Z,461.25
2022-10-13T10:27:57.331Z,466.88
2022-10-13T10:28:57.357Z,455.62
2022-10-13T10:29:57.295Z,450.00
2022-10-13T10:30:57.292Z,444.38
2022-10-13T10:31:57.272Z,438.75
2022-10-13T10:32:57.297Z,427.50
2022-10-13T10:33:57.250Z,421.88
2022-10-13T10:34:57.241Z,450.00
2022-10-13T10:35:57.235Z,455.62
2022-10-13T10:36:57.253Z,461.25
2022-10-13T10:37:57.205Z,466.88
2022-10-13T10:38:57.210Z,455.62
2022-10-13T10:39:57.187Z,455.62
2022-10-13T10:40:57.253Z,444.38
2022-10-13T10:41:57.174Z,427.50
2022-10-13T10:42:57.156Z,427.50
2022-10-13T10:43:57.143Z,427.50
2022-10-13T10:44:57.132Z,405.00
2022-10-13T10:45:57.120Z,410.62
2022-10-13T10:46:57.128Z,405.00
2022-10-13T10:47:57.100Z,388.12
2022-10-13T10:48:57.095Z,376.88
2022-10-13T10:49:57.078Z,360.00
2022-10-13T10:50:57.070Z,354.38
2022-10-13T10:51:57.073Z,348.75
2022-10-13T10:52:57.049Z,343.12
2022-10-13T10:53:57.037Z,337.50
2022-10-13T10:54:57.027Z,331.88
2022-10-13T10:55:57.015Z,331.88
2022-10-13T10:56:57.031Z,343.12
2022-10-13T10:57:56.995Z,331.88
2022-10-13T10:58:56.989Z,326.25
2022-10-13T10:59:56.973Z,326.25
2022-10-13T11:00:56.971Z,326.25
2022-10-13T11:01:57.010Z,326.25
2022-10-13T11:02:56.943Z,331.88
2022-10-13T11:03:56.928Z,337.50
2022-10-13T11:04:56.919Z,337.50
2022-10-13T11:05:56.908Z,331.88
2022-10-13T11:06:56.973Z,331.88
2022-10-13T11:07:56.887Z,331.88
2022-10-13T11:08:56.878Z,337.50
2022-10-13T11:09:56.867Z,337.50
2022-10-13T11:10:56.858Z,337.50
2022-10-13T11:11:56.857Z,337.50
2022-10-13T11:12:56.844Z,337.50
2022-10-13T11:13:56.819Z,365.62
2022-10-13T11:14:56.811Z,365.62
2022-10-13T11:15:56.803Z,354.38
2022-10-13T11:16:56.795Z,348.75
2022-10-13T11:17:56.773Z,348.75
2022-10-13T11:18:56.763Z,360.00
2022-10-13T11:19:56.751Z,382.50
2022-10-13T11:20:56.743Z,393.75
2022-10-13T11:21:56.741Z,393.75
2022-10-13T11:22:56.721Z,382.50
2022-10-13T11:24:01.796Z,376.88
2022-10-13T11:24:57.701Z,371.25
2022-10-13T11:25:56.688Z,360.00
2022-10-13T11:26:56.687Z,348.75
2022-10-13T11:27:56.664Z,343.12
2022-10-13T11:28:56.711Z,326.25
2022-10-13T11:29:56.757Z,320.62
2022-10-13T11:30:56.636Z,320.62
2022-10-13T11:31:56.634Z,315.00
2022-10-13T11:32:56.669Z,286.88
2022-10-13T11:33:56.601Z,292.50
2022-10-13T11:34:56.590Z,298.12
2022-10-13T11:35:56.577Z,270.00
2022-10-13T11:36:56.580Z,258.75
2022-10-13T11:38:06.780Z,253.12
2022-10-13T11:38:57.545Z,264.38
2022-10-13T11:39:56.579Z,258.75
2022-10-13T11:40:56.539Z,230.62
2022-10-13T11:41:56.525Z,208.12
2022-10-13T11:42:58.512Z,185.62
2022-10-13T11:43:56.490Z,185.62
2022-10-13T11:44:56.503Z,225.00
2022-10-13T11:45:56.470Z,258.75
2022-10-13T11:46:56.495Z,281.25
2022-10-13T11:47:56.529Z,309.38
2022-10-13T11:48:56.438Z,320.62
2022-10-13T11:49:56.425Z,303.75
2022-10-13T11:50:56.414Z,275.62
2022-10-13T11:51:56.411Z,264.38
2022-10-13T11:52:56.396Z,286.88
2022-10-13T11:53:56.384Z,298.12
2022-10-13T11:54:56.373Z,298.12
2022-10-13T11:55:56.359Z,292.50
2022-10-13T11:56:56.390Z,292.50
2022-10-13T11:57:56.344Z,292.50
2022-10-13T11:58:56.359Z,270.00
2022-10-13T11:59:56.313Z,247.50
2022-10-13T12:00:56.321Z,225.00
2022-10-13T12:01:56.307Z,213.75
2022-10-13T12:02:56.334Z,202.50
2022-10-13T12:03:56.272Z,196.88
2022-10-13T12:04:56.375Z,196.88
2022-10-13T12:05:56.253Z,196.88
2022-10-13T12:06:56.255Z,191.25
2022-10-13T12:07:56.226Z,174.38
2022-10-13T12:08:56.218Z,180.00
2022-10-13T12:09:56.290Z,191.25
2022-10-13T12:10:56.198Z,196.88
2022-10-13T12:11:56.194Z,196.88
2022-10-13T12:12:56.178Z,185.62
2022-10-13T12:13:56.181Z,196.88
2022-10-13T12:14:57.803Z,196.88
2022-10-13T12:15:56.139Z,191.25
2022-10-13T12:17:56.117Z,180.00
2022-10-13T12:18:56.110Z,180.00
2022-10-13T12:19:56.094Z,180.00
2022-10-13T12:20:56.131Z,174.38
2022-10-13T12:21:56.085Z,180.00
2022-10-13T12:22:56.066Z,180.00
2022-10-13T12:23:56.051Z,168.75
2022-10-13T12:24:56.044Z,157.50
2022-10-13T12:25:56.030Z,157.50
2022-10-13T12:26:56.034Z,168.75
2022-10-13T12:27:56.024Z,180.00
2022-10-13T12:28:56.071Z,191.25
2022-10-13T12:29:56.060Z,208.12
2022-10-13T12:30:55.980Z,219.38
2022-10-13T12:31:55.975Z,230.62
2022-10-13T12:32:55.971Z,225.00
2022-10-13T12:33:55.953Z,219.38
2022-10-13T12:34:55.932Z,208.12
2022-10-13T12:35:55.923Z,191.25
2022-10-13T12:36:55.921Z,180.00
2022-10-13T12:37:55.898Z,168.75
2022-10-13T12:38:55.896Z,163.12
2022-10-13T12:39:55.888Z,168.75
2022-10-13T12:40:55.866Z,168.75
2022-10-13T12:41:55.865Z,163.12
2022-10-13T12:42:55.844Z,157.50
2022-10-13T12:43:55.832Z,151.88
2022-10-13T12:44:55.823Z,146.25
2022-10-13T12:45:55.811Z,140.62
2022-10-13T12:46:55.809Z,135.00
2022-10-13T12:47:55.810Z,123.75
2022-10-13T12:48:55.802Z,112.50
2022-10-13T12:49:55.766Z,101.25
2022-10-13T12:50:55.756Z,101.25
2022-10-13T12:51:55.755Z,101.25